Time;durP1;ratioP1;P1;durP2;ratioP2;P2;SDS_P1;SDS_P2;PMS_P1;PMS_P2;Temp;Humidity;BMP_temperature;BMP_pressure;BME280_temperature;BME280_humidity;BME280_pressure;Samples;Min_cycle;Max_cycle;Signal;HPM_P1;HPM_P2
2021/01/20 00:00:05;;;;;;;6.33;4.60;;;6.50;99.90;;;;;;5114692;27;20652;-74
2021/01/20 00:02:31;;;;;;;4.83;4.17;;;6.50;99.90;;;;;;5114274;27;20279;-74
2021/01/20 00:04:56;;;;;;;7.90;4.40;;;6.50;99.90;;;;;;5112372;28;20529;-73
2021/01/20 00:07:22;;;;;;;7.00;3.90;;;6.50;99.90;;;;;;5114699;28;20664;-73
2021/01/20 00:09:47;;;;;;;4.40;4.00;;;6.50;99.90;;;;;;5114416;28;20168;-72
2021/01/20 00:12:13;;;;;;;4.73;4.20;;;6.50;99.90;;;;;;5113163;28;20172;-73
2021/01/20 00:14:39;;;;;;;4.30;3.70;;;6.50;99.90;;;;;;5113772;28;20168;-73
2021/01/20 00:17:04;;;;;;;5.87;3.13;;;6.60;99.90;;;;;;5114646;28;20255;-73
2021/01/20 00:19:30;;;;;;;6.20;4.10;;;6.60;99.90;;;;;;5114145;28;20210;-73
2021/01/20 00:25:21;;;;;;;5.33;3.73;;;6.50;99.90;;;;;;5093383;28;20183;-74
2021/01/20 00:27:46;;;;;;;4.13;3.20;;;6.50;99.90;;;;;;5093863;28;20438;-74
2021/01/20 00:33:33;;;;;;;5.30;3.07;;;6.40;99.90;;;;;;5132296;27;20328;-75
2021/01/20 00:39:21;;;;;;;3.70;3.30;;;6.30;99.90;;;;;;5093457;28;20292;-73
2021/01/20 00:41:47;;;;;;;4.17;3.80;;;6.30;99.90;;;;;;5094007;28;20434;-74
2021/01/20 00:44:13;;;;;;;4.60;3.30;;;6.30;99.90;;;;;;5104497;27;20219;-74
2021/01/20 00:46:38;;;;;;;5.13;3.20;;;6.40;99.90;;;;;;5096122;28;20254;-73
2021/01/20 00:49:04;;;;;;;5.73;3.30;;;6.40;99.90;;;;;;5097946;28;20251;-73
2021/01/20 00:51:30;;;;;;;3.67;3.37;;;6.40;99.90;;;;;;5100147;28;20177;-74
2021/01/20 00:53:55;;;;;;;3.43;2.87;;;6.40;99.90;;;;;;5117810;28;20240;-73
2021/01/20 00:56:21;;;;;;;5.13;2.93;;;6.40;99.90;;;;;;5117768;28;20603;-73
2021/01/20 00:58:46;;;;;;;3.83;3.43;;;6.40;99.90;;;;;;5118514;28;20543;-74
2021/01/20 01:01:12;;;;;;;4.20;3.03;;;6.40;99.90;;;;;;5117979;28;20168;-73
2021/01/20 01:03:37;;;;;;;4.03;3.30;;;6.40;99.90;;;;;;5115910;27;20197;-74
2021/01/20 01:06:03;;;;;;;3.07;2.73;;;6.40;99.90;;;;;;5117900;28;20184;-73
2021/01/20 01:08:29;;;;;;;4.37;2.90;;;6.40;99.90;;;;;;5118102;28;20201;-74
2021/01/20 01:10:54;;;;;;;7.27;3.03;;;6.40;99.90;;;;;;5119972;28;20495;-73
2021/01/20 01:13:21;;;;;;;3.87;3.20;;;6.40;99.90;;;;;;5117107;28;20184;-72
2021/01/20 01:15:46;;;;;;;3.90;3.20;;;6.40;99.90;;;;;;5117606;27;20279;-73
2021/01/20 01:18:12;;;;;;;7.10;3.70;;;6.40;99.90;;;;;;5132842;28;20494;-73
2021/01/20 01:20:38;;;;;;;3.67;3.47;;;6.40;99.90;;;;;;5133978;28;20198;-72
2021/01/20 01:23:03;;;;;;;6.10;3.60;;;6.50;99.90;;;;;;5117176;28;20609;-73
2021/01/20 01:25:29;;;;;;;3.60;2.87;;;6.50;99.90;;;;;;5135722;28;20569;-73
2021/01/20 01:27:54;;;;;;;3.40;3.10;;;6.50;99.90;;;;;;5137338;28;20251;-74
2021/01/20 01:30:20;;;;;;;6.77;3.37;;;6.50;99.90;;;;;;5124353;28;20213;-72
2021/01/20 01:32:45;;;;;;;3.53;3.10;;;6.60;99.90;;;;;;5117745;28;20274;-73
2021/01/20 01:35:12;;;;;;;5.23;3.13;;;6.60;99.90;;;;;;5115429;27;20223;-73
2021/01/20 01:37:37;;;;;;;4.30;3.90;;;6.60;99.90;;;;;;5117689;28;20280;-72
2021/01/20 01:40:04;;;;;;;3.80;3.50;;;6.60;99.90;;;;;;5117510;28;20464;-73
2021/01/20 01:42:30;;;;;;;4.47;3.60;;;6.60;99.90;;;;;;5117541;28;20612;-73
2021/01/20 01:44:56;;;;;;;4.77;3.40;;;6.70;99.90;;;;;;5115609;28;20452;-72
2021/01/20 01:47:22;;;;;;;3.53;3.23;;;6.70;99.90;;;;;;5107504;27;20205;-73
2021/01/20 01:49:49;;;;;;;6.13;3.80;;;6.70;99.90;;;;;;5096713;28;20407;-73
2021/01/20 01:52:14;;;;;;;3.63;3.33;;;6.70;99.90;;;;;;5097019;28;20479;-73
2021/01/20 01:58:03;;;;;;;5.50;2.73;;;6.70;99.90;;;;;;5107084;28;20443;-73
2021/01/20 02:00:29;;;;;;;3.97;3.50;;;6.70;99.90;;;;;;5117022;28;20458;-73
2021/01/20 02:02:55;;;;;;;4.27;3.20;;;6.70;99.90;;;;;;5117126;28;20410;-73
2021/01/20 02:05:20;;;;;;;4.27;3.00;;;6.70;99.90;;;;;;5116978;28;20414;-73
2021/01/20 02:07:46;;;;;;;3.67;3.17;;;6.70;99.90;;;;;;5115340;28;20448;-73
2021/01/20 02:10:13;;;;;;;3.80;3.43;;;6.70;99.90;;;;;;5105919;28;20221;-72
2021/01/20 02:12:48;;;;;;;3.37;3.00;;;6.70;99.90;;;;;;5097807;28;20180;-72
2021/01/20 02:15:23;;;;;;;4.73;3.07;;;6.70;99.90;;;;;;5098288;27;20472;-73
2021/01/20 02:18:01;;;;;;;4.20;3.80;;;6.70;99.90;;;;;;5105363;28;20525;-73
2021/01/20 02:20:29;;;;;;;3.40;3.07;;;6.70;99.90;;;;;;5115733;28;20473;-73
2021/01/20 02:23:04;;;;;;;4.83;3.60;;;6.70;99.90;;;;;;5117531;28;20402;-73
2021/01/20 02:25:32;;;;;;;5.00;3.87;;;6.70;99.90;;;;;;5116367;28;20405;-73
2021/01/20 02:28:08;;;;;;;6.23;3.57;;;6.70;99.90;;;;;;5116989;28;20395;-73
2021/01/20 02:30:39;;;;;;;4.70;3.47;;;6.70;99.90;;;;;;5115631;28;20552;-73
2021/01/20 02:33:06;;;;;;;5.03;3.17;;;6.70;99.90;;;;;;5118517;28;20852;-75
2021/01/20 02:35:32;;;;;;;3.33;2.80;;;6.80;99.90;;;;;;5124009;28;20447;-74
2021/01/20 02:38:01;;;;;;;4.67;3.63;;;6.80;99.90;;;;;;5115161;28;20777;-73
2021/01/20 02:40:26;;;;;;;3.27;2.97;;;6.70;99.90;;;;;;5114386;27;20856;-73
2021/01/20 02:42:52;;;;;;;4.97;3.63;;;6.70;99.90;;;;;;5115047;28;20430;-73
2021/01/20 02:45:17;;;;;;;4.00;2.70;;;6.80;99.90;;;;;;5116248;28;20173;-73
2021/01/20 02:47:45;;;;;;;3.50;3.00;;;6.80;99.90;;;;;;5116140;28;20164;-73
2021/01/20 02:50:11;;;;;;;2.83;2.50;;;6.70;99.90;;;;;;5115096;28;20176;-74
2021/01/20 02:52:49;;;;;;;5.30;3.10;;;6.80;99.90;;;;;;5095476;27;20491;-73
2021/01/20 02:55:20;;;;;;;3.70;3.23;;;6.80;99.90;;;;;;5095383;28;20719;-73
2021/01/20 02:57:52;;;;;;;4.50;3.60;;;6.80;99.90;;;;;;5096705;28;20506;-73
2021/01/20 03:00:18;;;;;;;4.60;3.00;;;6.90;99.90;;;;;;5095521;28;20500;-73
2021/01/20 03:02:48;;;;;;;7.87;4.00;;;6.90;99.90;;;;;;5094198;28;20467;-73
2021/01/20 03:05:17;;;;;;;4.10;3.10;;;6.90;99.90;;;;;;5094932;28;20410;-73
2021/01/20 03:07:43;;;;;;;3.33;3.03;;;6.90;99.90;;;;;;5096616;28;20411;-73
2021/01/20 03:10:10;;;;;;;4.20;3.30;;;6.80;99.90;;;;;;5094440;28;20414;-73
2021/01/20 03:12:36;;;;;;;4.50;3.67;;;6.90;99.90;;;;;;5094469;27;20423;-73
2021/01/20 03:15:03;;;;;;;4.23;3.30;;;7.00;99.90;;;;;;5094595;28;20403;-73
2021/01/20 03:17:31;;;;;;;3.27;2.97;;;7.00;99.90;;;;;;5094456;28;20483;-73
2021/01/20 03:19:57;;;;;;;5.17;3.73;;;7.00;99.90;;;;;;5096344;28;20451;-73
2021/01/20 03:22:22;;;;;;;4.57;3.27;;;6.90;99.90;;;;;;5095094;28;20486;-73
2021/01/20 03:24:48;;;;;;;4.97;3.80;;;6.80;99.90;;;;;;5094796;28;20406;-74
2021/01/20 03:27:13;;;;;;;4.73;3.10;;;6.80;99.90;;;;;;5094980;28;20184;-73
2021/01/20 03:29:39;;;;;;;4.60;3.00;;;6.80;99.90;;;;;;5103425;27;20207;-73
2021/01/20 03:32:05;;;;;;;4.30;3.53;;;6.90;99.90;;;;;;5114279;28;20563;-73
2021/01/20 03:34:30;;;;;;;5.67;3.60;;;6.90;99.90;;;;;;5114815;28;20219;-73
2021/01/20 03:36:56;;;;;;;4.90;3.00;;;6.90;99.90;;;;;;5115023;28;20180;-73
2021/01/20 03:39:21;;;;;;;4.97;3.27;;;6.80;99.90;;;;;;5113304;28;20196;-73
2021/01/20 03:41:47;;;;;;;2.90;2.70;;;6.90;99.90;;;;;;5114954;27;20192;-74
2021/01/20 03:44:12;;;;;;;5.00;3.33;;;7.00;99.90;;;;;;5114872;28;20634;-73
2021/01/20 03:46:38;;;;;;;3.20;2.87;;;7.00;99.90;;;;;;5114601;28;20698;-73
2021/01/20 03:49:03;;;;;;;3.80;3.40;;;7.00;99.90;;;;;;5112386;28;20217;-73
2021/01/20 03:51:29;;;;;;;3.23;2.70;;;7.00;99.90;;;;;;5108855;27;20203;-73
2021/01/20 03:53:55;;;;;;;3.40;2.70;;;6.90;99.90;;;;;;5114548;28;20533;-72
2021/01/20 03:56:21;;;;;;;3.30;2.77;;;7.00;99.90;;;;;;5114681;28;20184;-72
2021/01/20 03:58:47;;;;;;;3.53;3.20;;;7.00;99.90;;;;;;5114360;28;20441;-72
2021/01/20 04:01:12;;;;;;;3.17;2.87;;;7.00;99.90;;;;;;5112885;28;20164;-73
2021/01/20 04:03:38;;;;;;;2.80;2.60;;;7.00;99.90;;;;;;5114086;28;20247;-73
2021/01/20 04:06:04;;;;;;;5.20;3.70;;;7.00;99.90;;;;;;5114383;28;20184;-72
2021/01/20 04:08:30;;;;;;;3.33;2.83;;;7.00;99.90;;;;;;5114584;28;20168;-73
2021/01/20 04:10:55;;;;;;;3.27;2.67;;;7.10;99.90;;;;;;5113893;27;20428;-73
2021/01/20 04:13:23;;;;;;;3.13;2.90;;;7.10;99.90;;;;;;5113212;28;20424;-72
2021/01/20 04:15:49;;;;;;;3.93;3.17;;;7.10;99.90;;;;;;5113987;27;20602;-73
2021/01/20 04:18:14;;;;;;;3.77;3.30;;;7.10;99.90;;;;;;5113877;28;20427;-72
2021/01/20 04:20:40;;;;;;;3.43;3.13;;;7.20;99.90;;;;;;5113008;28;20410;-73
2021/01/20 04:23:06;;;;;;;3.33;2.90;;;7.20;99.90;;;;;;5111804;28;20530;-73
2021/01/20 04:25:31;;;;;;;3.50;3.03;;;7.20;99.90;;;;;;5113785;28;20318;-73
2021/01/20 04:27:57;;;;;;;3.73;3.27;;;7.20;99.90;;;;;;5113950;28;20557;-73
2021/01/20 04:30:23;;;;;;;3.37;3.07;;;7.20;99.90;;;;;;5114063;28;20168;-73
2021/01/20 04:32:48;;;;;;;3.40;3.10;;;7.10;99.90;;;;;;5112691;28;20177;-73
2021/01/20 04:35:14;;;;;;;3.37;3.03;;;7.20;99.90;;;;;;5112555;27;20262;-73
2021/01/20 04:37:39;;;;;;;3.33;3.03;;;7.20;99.90;;;;;;5114207;28;20207;-73
2021/01/20 04:40:05;;;;;;;3.07;2.70;;;7.10;99.90;;;;;;5107094;28;20201;-73
2021/01/20 04:42:32;;;;;;;4.03;3.40;;;7.10;99.90;;;;;;5101965;28;20256;-72
2021/01/20 04:44:58;;;;;;;3.83;2.90;;;7.10;99.90;;;;;;5110160;28;20471;-73
2021/01/20 04:47:24;;;;;;;4.40;3.63;;;7.10;99.90;;;;;;5116670;28;20425;-73
2021/01/20 04:49:51;;;;;;;3.43;3.13;;;7.10;99.90;;;;;;5124127;27;20180;-73
2021/01/20 04:52:19;;;;;;;3.57;3.20;;;7.20;99.90;;;;;;5129083;28;20406;-73
2021/01/20 04:54:46;;;;;;;3.00;2.73;;;7.10;99.90;;;;;;5114888;28;20503;-73
2021/01/20 04:57:13;;;;;;;4.30;3.40;;;7.20;99.90;;;;;;5126675;28;20460;-73
2021/01/20 04:59:42;;;;;;;3.33;3.03;;;7.20;99.90;;;;;;5128825;28;20442;-73
2021/01/20 05:02:12;;;;;;;3.30;3.00;;;7.20;99.90;;;;;;5123324;28;20441;-73
2021/01/20 05:04:40;;;;;;;3.50;3.00;;;7.30;99.90;;;;;;5115226;27;20815;-73
2021/01/20 05:07:06;;;;;;;4.20;3.60;;;7.30;99.90;;;;;;5114475;28;20410;-72
2021/01/20 05:09:32;;;;;;;3.83;3.33;;;7.30;99.90;;;;;;5113678;28;20455;-73
2021/01/20 05:11:58;;;;;;;4.63;3.53;;;7.30;99.90;;;;;;5113291;28;20840;-74
2021/01/20 05:14:24;;;;;;;4.17;3.77;;;7.30;99.90;;;;;;5113320;28;20513;-73
2021/01/20 05:16:50;;;;;;;4.03;3.17;;;7.20;99.90;;;;;;5112027;27;20339;-73
2021/01/20 05:19:17;;;;;;;3.80;3.47;;;7.30;99.90;;;;;;5112640;28;20208;-73
2021/01/20 05:22:04;;;;;;;7.87;3.80;;;7.30;99.90;;;;;;5113892;28;20414;-72
2021/01/20 05:24:30;;;;;;;3.23;2.90;;;7.30;99.90;;;;;;5114372;28;20410;-73
2021/01/20 05:26:56;;;;;;;4.23;3.23;;;7.30;99.90;;;;;;5112062;28;20459;-73
2021/01/20 05:29:21;;;;;;;3.60;3.30;;;7.30;99.90;;;;;;5093456;28;20399;-73
2021/01/20 05:31:47;;;;;;;3.63;3.13;;;7.30;99.90;;;;;;5096765;28;20630;-74
2021/01/20 05:34:37;;;;;;;3.70;3.30;;;7.40;99.90;;;;;;5111913;28;20638;-74
2021/01/20 05:37:09;;;;;;;4.80;3.70;;;7.30;99.90;;;;;;5105132;28;20244;-74
2021/01/20 05:39:36;;;;;;;4.20;3.37;;;7.30;99.90;;;;;;5097058;28;20543;-73
2021/01/20 05:42:12;;;;;;;4.93;3.50;;;7.30;99.90;;;;;;5097137;28;20421;-73
2021/01/20 05:44:39;;;;;;;3.47;3.17;;;7.30;99.90;;;;;;5096936;28;20486;-74
2021/01/20 05:47:09;;;;;;;3.53;2.90;;;7.20;99.90;;;;;;5103469;27;20897;-74
2021/01/20 05:49:35;;;;;;;3.70;3.40;;;7.30;99.90;;;;;;5118728;28;20475;-74
2021/01/20 05:52:03;;;;;;;4.40;3.17;;;7.30;99.90;;;;;;5115697;28;20430;-73
2021/01/20 05:54:33;;;;;;;4.53;3.40;;;7.30;99.90;;;;;;5101855;28;20455;-73
2021/01/20 05:57:10;;;;;;;4.53;3.30;;;7.30;99.90;;;;;;5104536;27;20958;-74
2021/01/20 05:59:35;;;;;;;4.20;3.70;;;7.20;99.90;;;;;;5105543;28;20510;-74
2021/01/20 06:02:02;;;;;;;3.60;3.07;;;7.20;99.90;;;;;;5103060;27;20437;-74
2021/01/20 06:04:30;;;;;;;7.00;3.70;;;7.20;99.90;;;;;;5109090;27;20206;-74
2021/01/20 06:06:56;;;;;;;4.07;3.00;;;7.30;99.90;;;;;;5105129;27;20896;-74
2021/01/20 06:09:24;;;;;;;5.00;3.37;;;7.30;99.90;;;;;;5110529;28;20461;-74
2021/01/20 06:11:50;;;;;;;4.17;3.47;;;7.30;99.90;;;;;;5114420;27;20437;-74
2021/01/20 06:14:15;;;;;;;3.37;3.07;;;7.40;99.90;;;;;;5115315;27;20767;-74
2021/01/20 06:16:42;;;;;;;6.47;3.30;;;7.40;99.90;;;;;;5112805;27;20839;-73
2021/01/20 06:19:09;;;;;;;3.10;2.80;;;7.40;99.90;;;;;;5110705;27;20200;-74
2021/01/20 06:21:40;;;;;;;4.00;3.60;;;7.40;99.90;;;;;;5111192;27;20417;-74
2021/01/20 06:24:38;;;;;;;4.40;2.87;;;7.40;99.90;;;;;;5124285;27;20421;-74
2021/01/20 06:27:31;;;;;;;3.70;3.10;;;7.50;99.90;;;;;;5123972;27;20810;-74
2021/01/20 06:30:11;;;;;;;2.80;2.60;;;7.50;99.90;;;;;;5108705;27;20531;-74
2021/01/20 06:32:42;;;;;;;5.23;3.00;;;7.50;99.90;;;;;;5102436;27;20460;-74
2021/01/20 06:35:08;;;;;;;2.67;2.40;;;7.50;99.90;;;;;;5108415;27;20444;-74
2021/01/20 06:37:41;;;;;;;5.00;2.90;;;7.50;99.90;;;;;;5103366;27;20466;-73
2021/01/20 06:40:21;;;;;;;3.50;3.20;;;7.50;99.90;;;;;;5115755;27;20461;-72
2021/01/20 06:42:51;;;;;;;4.47;4.07;;;7.50;99.90;;;;;;5116968;27;20409;-73
2021/01/20 06:45:22;;;;;;;3.10;2.80;;;7.60;99.90;;;;;;5123348;27;20406;-74
2021/01/20 06:47:59;;;;;;;2.50;2.30;;;7.60;99.90;;;;;;5134705;27;20423;-73
2021/01/20 06:50:30;;;;;;;4.27;2.70;;;7.60;99.90;;;;;;5107065;27;20447;-74
2021/01/20 06:53:03;;;;;;;3.20;2.90;;;7.60;99.90;;;;;;5116111;27;20410;-74
2021/01/20 06:55:33;;;;;;;3.27;2.50;;;7.60;99.90;;;;;;5121391;27;20933;-74
2021/01/20 06:58:21;;;;;;;4.57;3.03;;;7.60;99.90;;;;;;5114733;27;20432;-74
2021/01/20 07:01:12;;;;;;;2.87;2.67;;;7.60;99.90;;;;;;5107357;27;20431;-73
2021/01/20 07:03:39;;;;;;;3.73;2.80;;;7.60;99.90;;;;;;5067018;27;20430;-74
2021/01/20 07:06:40;;;;;;;2.87;2.60;;;7.60;99.90;;;;;;5097204;27;20438;-73
2021/01/20 07:09:14;;;;;;;2.93;2.60;;;7.70;99.90;;;;;;5102668;27;20431;-73
2021/01/20 07:11:57;;;;;;;2.87;2.57;;;7.60;99.90;;;;;;5103474;27;20438;-73
2021/01/20 07:14:26;;;;;;;6.93;2.90;;;7.60;99.90;;;;;;5057795;27;20919;-74
2021/01/20 07:16:54;;;;;;;3.50;3.20;;;7.60;99.90;;;;;;5103340;27;20447;-73
2021/01/20 07:22:43;;;;;;;2.90;2.47;;;7.70;99.90;;;;;;5106837;28;20436;-74
2021/01/20 07:25:52;;;;;;;2.90;2.60;;;7.70;99.90;;;;;;5101824;28;20514;-74
2021/01/20 07:28:55;;;;;;;3.17;2.97;;;7.70;99.90;;;;;;5097035;27;20426;-73
2021/01/20 07:31:21;;;;;;;3.03;2.73;;;7.70;99.90;;;;;;5123323;27;20425;-74
2021/01/20 07:33:59;;;;;;;2.73;2.50;;;7.70;99.90;;;;;;5117834;27;20430;-75
2021/01/20 07:36:26;;;;;;;2.70;2.50;;;7.70;99.90;;;;;;5121346;27;20438;-73
2021/01/20 07:38:52;;;;;;;4.47;2.80;;;7.70;99.90;;;;;;5101592;27;20457;-73
2021/01/20 07:41:18;;;;;;;3.40;2.77;;;7.70;99.90;;;;;;5093310;27;20459;-73
2021/01/20 07:43:44;;;;;;;4.67;3.50;;;7.70;99.90;;;;;;5095226;28;20494;-73
2021/01/20 07:46:14;;;;;;;3.13;2.57;;;7.80;99.90;;;;;;5116681;27;20286;-74
2021/01/20 07:48:39;;;;;;;3.77;2.70;;;7.70;99.90;;;;;;5113124;28;20430;-73
2021/01/20 07:51:05;;;;;;;3.70;2.77;;;7.80;99.90;;;;;;5113650;28;20429;-73
2021/01/20 07:53:30;;;;;;;2.50;2.30;;;7.80;99.90;;;;;;5115350;27;20213;-74
2021/01/20 07:55:56;;;;;;;2.90;2.63;;;7.80;99.90;;;;;;5114354;28;20290;-74
2021/01/20 07:58:26;;;;;;;2.90;2.60;;;7.90;99.90;;;;;;5112126;28;20168;-74
2021/01/20 08:00:51;;;;;;;3.07;2.83;;;7.90;99.90;;;;;;5113116;28;20271;-73
2021/01/20 08:03:33;;;;;;;3.53;3.27;;;7.90;99.90;;;;;;5114526;28;20449;-73
2021/01/20 08:05:59;;;;;;;4.03;2.90;;;7.90;99.90;;;;;;5129067;27;20200;-73
2021/01/20 08:08:25;;;;;;;4.10;2.60;;;7.90;99.90;;;;;;5134644;27;20430;-73
2021/01/20 08:10:56;;;;;;;3.30;2.70;;;7.90;99.90;;;;;;5101026;27;20473;-73
2021/01/20 08:13:26;;;;;;;2.70;2.50;;;7.90;99.90;;;;;;5094608;28;20266;-73
2021/01/20 08:15:52;;;;;;;3.10;2.80;;;7.90;99.90;;;;;;5093304;28;20432;-73
2021/01/20 08:18:19;;;;;;;2.47;2.27;;;7.90;99.90;;;;;;5098515;27;20431;-73
2021/01/20 08:20:45;;;;;;;3.50;2.43;;;7.90;99.90;;;;;;5132852;27;20522;-73
2021/01/20 08:23:53;;;;;;;2.97;2.40;;;8.00;99.90;;;;;;5127584;27;20411;-73
2021/01/20 08:26:26;;;;;;;3.20;2.90;;;8.00;99.90;;;;;;5098870;28;20532;-73
2021/01/20 08:29:12;;;;;;;2.77;2.53;;;8.00;99.90;;;;;;5127800;27;20447;-75
2021/01/20 08:31:42;;;;;;;5.90;2.50;;;8.00;99.90;;;;;;5133343;27;20426;-74
2021/01/20 08:34:20;;;;;;;3.37;3.07;;;8.00;99.90;;;;;;5110196;28;20436;-74
2021/01/20 08:37:07;;;;;;;3.07;2.50;;;8.10;99.90;;;;;;5105159;28;20522;-73
2021/01/20 08:39:35;;;;;;;5.93;4.30;;;8.10;99.90;;;;;;5134845;27;20472;-73
2021/01/20 08:42:21;;;;;;;2.80;2.30;;;8.00;99.70;;;;;;5114730;27;20429;-73
2021/01/20 08:45:08;;;;;;;4.63;2.90;;;8.00;99.50;;;;;;5093484;28;20402;-73
2021/01/20 08:47:55;;;;;;;3.60;2.70;;;8.10;99.40;;;;;;5094088;28;20439;-73
2021/01/20 08:50:27;;;;;;;2.80;2.60;;;8.10;99.30;;;;;;5089740;28;20529;-73
2021/01/20 08:52:57;;;;;;;3.17;2.87;;;8.10;99.30;;;;;;5098011;28;20434;-74
2021/01/20 08:55:29;;;;;;;3.37;2.63;;;8.10;99.20;;;;;;5133078;27;20437;-74
2021/01/20 08:58:32;;;;;;;3.03;2.73;;;8.10;99.30;;;;;;5135538;27;20418;-74
2021/01/20 09:01:02;;;;;;;3.33;3.03;;;8.10;99.20;;;;;;5150034;27;20421;-74
2021/01/20 09:03:32;;;;;;;5.00;3.60;;;8.20;99.00;;;;;;5133721;27;20419;-76
2021/01/20 09:05:59;;;;;;;3.80;3.40;;;8.10;98.90;;;;;;5150513;27;20448;-75
2021/01/20 09:08:26;;;;;;;3.10;2.80;;;8.10;98.90;;;;;;5137718;27;20418;-74
2021/01/20 09:10:53;;;;;;;5.17;3.30;;;8.10;98.80;;;;;;5137837;27;20420;-73
2021/01/20 09:13:20;;;;;;;3.23;2.93;;;8.20;98.80;;;;;;5129813;27;20945;-74
2021/01/20 09:15:47;;;;;;;2.83;2.53;;;8.20;98.70;;;;;;5097487;27;20439;-73
2021/01/20 09:18:13;;;;;;;2.83;2.50;;;8.20;98.70;;;;;;5098163;28;20779;-73
2021/01/20 09:20:39;;;;;;;3.23;2.90;;;8.20;98.70;;;;;;5098240;28;20454;-73
2021/01/20 09:23:05;;;;;;;3.10;2.50;;;8.20;98.60;;;;;;5098636;28;20430;-73
2021/01/20 09:25:31;;;;;;;2.97;2.67;;;8.20;98.60;;;;;;5099060;28;20437;-73
2021/01/20 09:27:57;;;;;;;3.27;2.97;;;8.20;98.30;;;;;;5109558;27;20878;-73
2021/01/20 09:30:23;;;;;;;3.57;3.27;;;8.20;98.30;;;;;;5137737;27;20174;-73
2021/01/20 09:32:49;;;;;;;4.23;3.30;;;8.20;98.20;;;;;;5140833;27;20578;-73
2021/01/20 09:35:15;;;;;;;3.43;2.93;;;8.30;98.30;;;;;;5133576;27;20434;-73
2021/01/20 09:37:42;;;;;;;4.00;3.23;;;8.30;98.30;;;;;;5128080;28;20192;-72
2021/01/20 09:40:13;;;;;;;3.33;3.03;;;8.30;98.10;;;;;;5116475;28;20450;-72
2021/01/20 09:42:40;;;;;;;4.30;3.80;;;8.30;98.10;;;;;;5116300;27;20426;-73
2021/01/20 09:45:11;;;;;;;4.07;3.07;;;8.30;98.10;;;;;;5115821;28;20496;-73
2021/01/20 09:47:38;;;;;;;3.57;3.13;;;8.40;98.10;;;;;;5118182;28;20430;-73
2021/01/20 09:50:08;;;;;;;3.83;3.40;;;8.30;97.90;;;;;;5116779;28;20442;-74
2021/01/20 09:52:35;;;;;;;4.60;3.40;;;8.40;98.10;;;;;;5115925;27;20402;-74
2021/01/20 09:55:01;;;;;;;5.30;3.70;;;8.40;97.70;;;;;;5107648;28;20409;-72
2021/01/20 09:57:26;;;;;;;3.47;3.17;;;8.30;97.90;;;;;;5105878;28;20537;-73
2021/01/20 09:59:52;;;;;;;3.87;3.50;;;8.30;97.90;;;;;;5106070;28;20449;-72
2021/01/20 10:02:19;;;;;;;4.23;3.80;;;8.20;97.80;;;;;;5111149;28;20191;-72
2021/01/20 10:04:45;;;;;;;3.90;3.53;;;8.20;97.80;;;;;;5115419;27;20738;-72
2021/01/20 10:07:12;;;;;;;3.90;3.60;;;8.10;97.60;;;;;;5120376;27;20465;-73
2021/01/20 10:09:38;;;;;;;3.33;3.03;;;8.10;97.70;;;;;;5097408;28;20448;-73
2021/01/20 10:12:05;;;;;;;5.13;3.10;;;8.00;97.80;;;;;;5097010;28;20412;-73
2021/01/20 10:14:31;;;;;;;3.57;3.27;;;8.00;97.70;;;;;;5097068;28;20273;-73
2021/01/20 10:16:56;;;;;;;3.90;3.40;;;8.00;97.70;;;;;;5097812;28;20419;-73
2021/01/20 10:19:22;;;;;;;4.43;3.67;;;8.00;97.70;;;;;;5117127;27;20199;-74
2021/01/20 10:21:47;;;;;;;3.63;3.10;;;8.00;97.60;;;;;;5116765;27;20193;-73
2021/01/20 10:24:13;;;;;;;4.03;3.50;;;8.10;97.40;;;;;;5117148;28;20200;-73
2021/01/20 10:26:39;;;;;;;4.47;3.20;;;8.10;97.40;;;;;;5112267;28;20259;-73
2021/01/20 10:29:06;;;;;;;4.13;3.70;;;8.10;97.50;;;;;;5111783;27;20169;-73
2021/01/20 10:31:34;;;;;;;3.80;3.50;;;8.00;97.60;;;;;;5117884;28;20497;-73
2021/01/20 10:34:00;;;;;;;4.57;3.13;;;8.00;97.60;;;;;;5117391;28;20529;-73
2021/01/20 10:36:26;;;;;;;3.40;3.10;;;8.10;97.80;;;;;;5115313;28;20431;-73
2021/01/20 10:38:52;;;;;;;3.10;2.73;;;8.00;97.60;;;;;;5114714;28;20943;-74
2021/01/20 10:41:18;;;;;;;3.67;3.10;;;8.00;97.60;;;;;;5116839;28;20394;-73
2021/01/20 10:43:44;;;;;;;3.67;3.13;;;8.10;97.60;;;;;;5117150;28;20415;-73
2021/01/20 10:46:10;;;;;;;3.67;3.23;;;8.10;97.50;;;;;;5117237;28;20513;-73
2021/01/20 10:48:35;;;;;;;3.63;3.30;;;8.10;97.40;;;;;;5116283;28;20248;-73
2021/01/20 10:51:01;;;;;;;5.77;3.37;;;8.10;97.30;;;;;;5098768;27;20273;-73
2021/01/20 10:53:26;;;;;;;4.40;3.30;;;8.20;97.20;;;;;;5095733;28;20173;-73
2021/01/20 10:55:52;;;;;;;4.13;3.50;;;8.20;96.90;;;;;;5095837;28;20188;-74
2021/01/20 10:58:17;;;;;;;3.77;3.37;;;8.30;96.70;;;;;;5095925;28;20504;-74
2021/01/20 11:00:46;;;;;;;3.20;3.00;;;8.30;96.70;;;;;;5096712;28;20205;-73
2021/01/20 11:03:13;;;;;;;3.70;3.23;;;8.30;96.70;;;;;;5095905;28;20175;-73
2021/01/20 11:05:39;;;;;;;3.43;3.13;;;8.30;96.80;;;;;;5120649;27;20425;-74
2021/01/20 11:08:04;;;;;;;5.33;3.97;;;8.30;96.80;;;;;;5136708;27;20450;-73
2021/01/20 11:10:30;;;;;;;3.73;3.40;;;8.30;96.90;;;;;;5136686;27;20413;-73
2021/01/20 11:12:56;;;;;;;4.17;3.77;;;8.40;97.10;;;;;;5108330;27;20186;-73
2021/01/20 11:15:22;;;;;;;4.50;3.47;;;8.30;96.80;;;;;;5095796;28;20520;-72
2021/01/20 11:17:49;;;;;;;4.03;3.73;;;8.30;96.80;;;;;;5095365;27;20768;-72
2021/01/20 11:20:15;;;;;;;4.03;3.33;;;8.30;97.10;;;;;;5094968;28;20576;-73
2021/01/20 11:22:41;;;;;;;4.17;3.47;;;8.30;97.20;;;;;;5095958;28;20488;-73
2021/01/20 11:25:07;;;;;;;3.43;2.93;;;8.30;97.10;;;;;;5094603;28;20431;-73
2021/01/20 11:27:33;;;;;;;3.70;3.30;;;8.30;96.80;;;;;;5098307;27;20236;-74
2021/01/20 11:29:58;;;;;;;4.77;3.67;;;8.30;96.70;;;;;;5135065;27;20826;-74
2021/01/20 11:32:24;;;;;;;5.07;3.13;;;8.40;96.60;;;;;;5136109;27;20194;-74
2021/01/20 11:34:52;;;;;;;3.60;3.30;;;8.50;96.50;;;;;;5098415;27;20234;-74
2021/01/20 11:37:18;;;;;;;4.53;4.13;;;8.50;96.40;;;;;;5095455;28;20628;-74
2021/01/20 11:39:43;;;;;;;4.87;3.20;;;8.60;96.30;;;;;;5094637;28;20502;-74
2021/01/20 11:42:09;;;;;;;3.30;3.00;;;8.70;96.30;;;;;;5094854;28;20255;-75
2021/01/20 11:44:37;;;;;;;4.20;3.30;;;8.70;96.10;;;;;;5095787;28;20281;-74
2021/01/20 11:47:03;;;;;;;4.93;3.67;;;8.80;96.00;;;;;;5094853;28;20182;-75
2021/01/20 11:49:29;;;;;;;4.50;3.47;;;8.80;96.00;;;;;;5096329;28;20563;-74
2021/01/20 11:51:55;;;;;;;3.93;3.43;;;8.90;96.00;;;;;;5096255;27;20308;-74
2021/01/20 11:54:20;;;;;;;5.80;3.50;;;9.00;95.60;;;;;;5095533;28;20433;-73
2021/01/20 11:56:46;;;;;;;3.90;3.47;;;9.00;95.40;;;;;;5105127;28;20427;-74
2021/01/20 11:59:11;;;;;;;4.07;3.67;;;9.10;95.30;;;;;;5112434;28;20207;-74
2021/01/20 12:01:37;;;;;;;3.40;3.20;;;9.10;95.40;;;;;;5099618;28;20624;-74
2021/01/20 12:04:03;;;;;;;5.03;3.00;;;9.10;95.40;;;;;;5108276;28;20170;-73
2021/01/20 12:06:29;;;;;;;3.67;3.37;;;9.20;95.10;;;;;;5136991;27;20200;-74
2021/01/20 12:08:55;;;;;;;4.80;3.47;;;9.20;94.80;;;;;;5131751;28;20444;-73
2021/01/20 12:11:24;;;;;;;3.80;3.13;;;9.20;94.80;;;;;;5117066;28;20673;-73
2021/01/20 12:13:50;;;;;;;4.60;3.50;;;9.30;94.80;;;;;;5114828;28;20217;-73
2021/01/20 12:16:15;;;;;;;3.60;3.30;;;9.30;94.60;;;;;;5107525;28;20441;-73
2021/01/20 12:18:41;;;;;;;4.10;2.87;;;9.30;94.40;;;;;;5096336;27;20281;-73
2021/01/20 12:21:06;;;;;;;3.13;2.90;;;9.30;94.60;;;;;;5105366;28;20200;-72
2021/01/20 12:23:32;;;;;;;3.27;2.87;;;9.30;94.50;;;;;;5094520;28;20171;-73
2021/01/20 12:25:57;;;;;;;4.10;3.47;;;9.30;94.40;;;;;;5094222;28;20271;-73
2021/01/20 12:28:23;;;;;;;3.53;3.20;;;9.40;94.10;;;;;;5094334;28;20574;-73
2021/01/20 12:30:48;;;;;;;4.47;2.70;;;9.40;94.10;;;;;;5109761;28;20229;-73
2021/01/20 12:33:14;;;;;;;2.93;2.73;;;9.40;94.30;;;;;;5115087;28;20578;-73
2021/01/20 12:35:39;;;;;;;3.47;3.17;;;9.40;94.10;;;;;;5114656;28;20752;-73
2021/01/20 12:38:05;;;;;;;3.97;3.10;;;9.30;94.00;;;;;;5115308;27;20192;-73
2021/01/20 12:40:31;;;;;;;4.13;3.03;;;9.30;94.00;;;;;;5131155;28;20196;-73
2021/01/20 12:42:57;;;;;;;4.47;3.63;;;9.40;93.90;;;;;;5144699;28;20174;-73
2021/01/20 12:45:23;;;;;;;3.87;3.43;;;9.40;94.00;;;;;;5130680;27;20522;-72
2021/01/20 12:47:48;;;;;;;3.87;3.37;;;9.40;94.10;;;;;;5122508;28;20410;-72
2021/01/20 12:50:14;;;;;;;3.10;2.83;;;9.40;94.00;;;;;;5122160;27;20244;-74
2021/01/20 12:52:40;;;;;;;3.53;3.23;;;9.40;93.80;;;;;;5107962;28;20186;-73
2021/01/20 12:55:06;;;;;;;4.97;3.43;;;9.50;93.90;;;;;;5111151;28;20403;-73
2021/01/20 12:57:32;;;;;;;4.93;3.43;;;9.50;94.00;;;;;;5100927;28;20467;-73
2021/01/20 12:59:57;;;;;;;4.37;3.57;;;9.50;94.40;;;;;;5101176;28;20514;-73
2021/01/20 13:02:23;;;;;;;3.40;3.10;;;9.50;93.90;;;;;;5112031;28;20224;-73
2021/01/20 13:04:49;;;;;;;3.37;3.07;;;9.40;93.90;;;;;;5125746;27;20187;-73
2021/01/20 13:07:14;;;;;;;3.70;3.40;;;9.40;94.00;;;;;;5141668;27;20188;-73
2021/01/20 13:09:41;;;;;;;4.73;3.50;;;9.40;94.00;;;;;;5141626;27;20278;-73
2021/01/20 13:12:07;;;;;;;4.00;3.63;;;9.40;94.10;;;;;;5139789;27;20171;-73
2021/01/20 13:14:33;;;;;;;3.33;3.03;;;9.40;94.40;;;;;;5138165;27;20416;-74
2021/01/20 13:16:59;;;;;;;5.10;3.90;;;9.30;94.40;;;;;;5104434;27;20431;-74
2021/01/20 13:19:25;;;;;;;5.23;3.50;;;9.30;94.50;;;;;;5112600;28;20200;-73